createdAt,value
2022-07-30T00:00:11.079Z,0.00
2022-07-30T00:01:11.111Z,0.00
2022-07-30T00:02:11.039Z,0.00
2022-07-30T00:03:11.040Z,0.00
2022-07-30T00:04:11.010Z,0.00
2022-07-30T00:05:11.000Z,0.00
2022-07-30T00:06:11.002Z,0.00
2022-07-30T00:07:10.980Z,0.00
2022-07-30T00:08:10.982Z,0.00
2022-07-30T00:09:10.960Z,0.00
2022-07-30T00:10:10.951Z,0.00
2022-07-30T00:11:10.961Z,0.00
2022-07-30T00:12:10.933Z,0.00
2022-07-30T00:13:10.912Z,0.00
2022-07-30T00:14:10.903Z,0.00
2022-07-30T00:15:10.893Z,0.00
2022-07-30T00:16:10.954Z,0.00
2022-07-30T00:17:10.953Z,0.00
2022-07-30T00:18:11.938Z,0.00
2022-07-30T00:19:10.863Z,0.00
2022-07-30T00:20:10.833Z,0.00
2022-07-30T00:21:11.158Z,0.00
2022-07-30T00:22:11.894Z,0.00
2022-07-30T00:23:10.814Z,0.00
2022-07-30T00:24:10.785Z,0.00
2022-07-30T00:25:10.796Z,0.00
2022-07-30T00:26:10.775Z,0.00
2022-07-30T00:27:10.776Z,0.00
2022-07-30T00:28:10.747Z,0.00
2022-07-30T00:29:10.748Z,0.00
2022-07-30T00:30:10.729Z,0.00
2022-07-30T00:31:10.780Z,0.00
2022-07-30T00:32:10.709Z,0.00
2022-07-30T00:33:10.708Z,0.00
2022-07-30T00:34:10.678Z,0.00
2022-07-30T00:35:10.669Z,0.00
2022-07-30T00:36:10.679Z,0.00
2022-07-30T00:37:10.688Z,0.00
2022-07-30T00:38:10.658Z,0.00
2022-07-30T00:39:10.630Z,0.00
2022-07-30T00:40:10.626Z,0.00
2022-07-30T00:41:10.647Z,0.00
2022-07-30T00:42:10.607Z,0.00
2022-07-30T00:43:10.607Z,0.00
2022-07-30T00:44:10.572Z,0.00
2022-07-30T00:45:10.582Z,0.00
2022-07-30T00:46:10.688Z,0.00
2022-07-30T00:47:10.571Z,0.00
2022-07-30T00:48:10.552Z,0.00
2022-07-30T00:49:10.603Z,0.00
2022-07-30T00:50:10.523Z,0.00
2022-07-30T00:51:10.502Z,0.00
2022-07-30T00:52:10.482Z,0.00
2022-07-30T00:53:10.483Z,0.00
2022-07-30T00:54:10.465Z,0.00
2022-07-30T00:55:10.483Z,0.00
2022-07-30T00:56:10.474Z,0.00
2022-07-30T00:57:10.432Z,0.00
2022-07-30T00:58:10.423Z,0.00
2022-07-30T00:59:10.416Z,0.00
2022-07-30T01:00:10.406Z,0.00
2022-07-30T01:01:10.480Z,0.00
2022-07-30T01:02:10.425Z,0.00
2022-07-30T01:03:10.389Z,0.00
2022-07-30T01:04:10.346Z,0.00
2022-07-30T01:05:10.348Z,0.00
2022-07-30T01:06:14.208Z,0.00
2022-07-30T01:07:10.331Z,0.00
2022-07-30T01:08:10.318Z,0.00
2022-07-30T01:09:10.348Z,0.00
2022-07-30T01:10:10.290Z,0.00
2022-07-30T01:11:10.279Z,0.00
2022-07-30T01:12:10.289Z,0.00
2022-07-30T01:13:10.281Z,0.00
2022-07-30T01:14:10.264Z,0.00
2022-07-30T01:15:10.284Z,0.00
2022-07-30T01:16:10.278Z,0.00
2022-07-30T01:17:10.244Z,0.00
2022-07-30T01:18:10.208Z,0.00
2022-07-30T01:19:10.219Z,0.00
2022-07-30T01:20:10.202Z,0.00
2022-07-30T01:21:10.191Z,0.00
2022-07-30T01:22:10.179Z,0.00
2022-07-30T01:23:10.172Z,0.00
2022-07-30T01:24:10.152Z,0.00
2022-07-30T01:25:10.142Z,0.00
2022-07-30T01:26:10.122Z,0.00
2022-07-30T01:27:10.131Z,0.00
2022-07-30T01:28:10.102Z,0.00
2022-07-30T01:29:10.093Z,0.00
2022-07-30T01:30:10.183Z,0.00
2022-07-30T01:31:10.148Z,0.00
2022-07-30T01:32:10.051Z,0.00
2022-07-30T01:33:10.030Z,0.00
2022-07-30T01:34:10.051Z,0.00
2022-07-30T01:35:10.011Z,0.00
2022-07-30T01:36:10.002Z,0.00
2022-07-30T01:37:10.004Z,0.00
2022-07-30T01:38:10.003Z,0.00
2022-07-30T01:39:09.972Z,0.00
2022-07-30T01:40:09.953Z,0.00
2022-07-30T01:41:09.946Z,0.00
2022-07-30T01:42:09.943Z,0.00
2022-07-30T01:43:09.963Z,0.00
2022-07-30T01:44:09.934Z,0.00
2022-07-30T01:45:09.903Z,0.00
2022-07-30T01:46:09.956Z,0.00
2022-07-30T01:47:09.895Z,0.00
2022-07-30T01:48:09.913Z,0.00
2022-07-30T01:49:09.897Z,0.00
2022-07-30T01:50:11.122Z,0.00
2022-07-30T01:51:09.856Z,0.00
2022-07-30T01:52:09.849Z,0.00
2022-07-30T01:53:09.818Z,0.00
2022-07-30T01:54:09.849Z,0.00
2022-07-30T01:55:11.636Z,0.00
2022-07-30T01:56:11.516Z,0.00
2022-07-30T01:57:09.797Z,0.00
2022-07-30T01:58:09.768Z,0.00
2022-07-30T01:59:09.757Z,0.00
2022-07-30T02:00:09.768Z,0.00
2022-07-30T02:01:09.845Z,0.00
2022-07-30T02:02:09.757Z,0.00
2022-07-30T02:03:09.824Z,0.00
2022-07-30T02:04:09.719Z,0.00
2022-07-30T02:05:09.700Z,0.00
2022-07-30T02:06:09.692Z,0.00
2022-07-30T02:07:09.719Z,0.00
2022-07-30T02:08:09.660Z,0.00
2022-07-30T02:09:11.118Z,0.00
2022-07-30T02:10:09.651Z,0.00
2022-07-30T02:11:09.638Z,0.00
2022-07-30T02:12:09.632Z,0.00
2022-07-30T02:13:09.631Z,0.00
2022-07-30T02:14:09.625Z,0.00
2022-07-30T02:15:09.596Z,0.00
2022-07-30T02:16:09.687Z,0.00
2022-07-30T02:17:19.086Z,0.00
2022-07-30T02:18:10.573Z,0.00
2022-07-30T02:19:09.554Z,0.00
2022-07-30T02:20:10.136Z,0.00
2022-07-30T02:21:10.135Z,0.00
2022-07-30T02:22:09.514Z,0.00
2022-07-30T02:23:09.542Z,0.00
2022-07-30T02:24:09.485Z,0.00
2022-07-30T02:25:09.503Z,0.00
2022-07-30T02:26:09.485Z,0.00
2022-07-30T02:27:09.475Z,0.00
2022-07-30T02:28:09.464Z,0.00
2022-07-30T02:29:11.399Z,0.00
2022-07-30T02:30:09.446Z,0.00
2022-07-30T02:31:17.700Z,0.00
2022-07-30T02:32:10.407Z,0.00
2022-07-30T02:33:09.427Z,0.00
2022-07-30T02:34:09.397Z,0.00
2022-07-30T02:35:09.379Z,0.00
2022-07-30T02:36:11.323Z,0.00
2022-07-30T02:37:09.390Z,0.00
2022-07-30T02:38:09.377Z,0.00
2022-07-30T02:39:09.368Z,0.00
2022-07-30T02:40:09.319Z,0.00
2022-07-30T02:41:10.479Z,0.00
2022-07-30T02:42:09.310Z,0.00
2022-07-30T02:43:09.308Z,0.00
2022-07-30T02:44:09.300Z,0.00
2022-07-30T02:45:09.291Z,0.00
2022-07-30T02:46:09.291Z,0.00
2022-07-30T02:47:09.367Z,0.00
2022-07-30T02:48:09.252Z,0.00
2022-07-30T02:49:09.267Z,0.00
2022-07-30T02:50:09.213Z,0.00
2022-07-30T02:51:09.242Z,0.00
2022-07-30T02:52:09.211Z,0.00
2022-07-30T02:53:09.209Z,0.00
2022-07-30T02:54:09.181Z,0.00
2022-07-30T02:55:09.185Z,0.00
2022-07-30T02:56:09.193Z,0.00
2022-07-30T02:57:09.154Z,0.00
2022-07-30T02:58:09.142Z,0.00
2022-07-30T02:59:09.125Z,0.00
2022-07-30T03:00:09.114Z,0.00
2022-07-30T03:01:09.183Z,0.00
2022-07-30T03:02:09.168Z,0.00
2022-07-30T03:03:09.097Z,0.00
2022-07-30T03:04:09.104Z,0.00
2022-07-30T03:05:09.066Z,0.00
2022-07-30T03:06:09.066Z,0.00
2022-07-30T03:07:09.444Z,0.00
2022-07-30T03:08:09.057Z,0.00
2022-07-30T03:09:09.016Z,0.00
2022-07-30T03:10:09.028Z,0.00
2022-07-30T03:11:09.009Z,0.00
2022-07-30T03:12:09.008Z,0.00
2022-07-30T03:13:08.988Z,0.00
2022-07-30T03:14:08.999Z,0.00
2022-07-30T03:15:08.980Z,0.00
2022-07-30T03:16:08.996Z,0.00
2022-07-30T03:17:08.960Z,0.00
2022-07-30T03:18:08.939Z,0.00
2022-07-30T03:19:08.919Z,0.00
2022-07-30T03:20:08.947Z,0.00
2022-07-30T03:21:08.900Z,0.00
2022-07-30T03:22:08.891Z,0.00
2022-07-30T03:23:08.881Z,0.00
2022-07-30T03:24:08.871Z,0.00
2022-07-30T03:25:08.872Z,0.00
2022-07-30T03:26:08.882Z,0.00
2022-07-30T03:27:08.841Z,0.00
2022-07-30T03:28:08.843Z,0.00
2022-07-30T03:29:08.841Z,0.00
2022-07-30T03:30:08.803Z,0.00
2022-07-30T03:31:08.863Z,0.00
2022-07-30T03:32:08.806Z,0.00
2022-07-30T03:33:08.774Z,0.00
2022-07-30T03:34:08.782Z,0.00
2022-07-30T03:35:17.216Z,0.00
2022-07-30T03:36:09.736Z,0.00
2022-07-30T03:37:08.768Z,0.00
2022-07-30T03:38:08.725Z,0.00
2022-07-30T03:39:08.741Z,0.00
2022-07-30T03:40:08.735Z,0.00
2022-07-30T03:41:08.695Z,0.00
2022-07-30T03:42:08.702Z,0.00
2022-07-30T03:43:32.499Z,0.00
2022-07-30T03:44:09.673Z,0.00
2022-07-30T03:45:08.680Z,0.00
2022-07-30T03:46:08.722Z,0.00
2022-07-30T03:47:08.664Z,0.00
2022-07-30T03:48:08.698Z,0.00
2022-07-30T03:49:09.401Z,0.00
2022-07-30T03:50:08.609Z,0.00
2022-07-30T03:51:08.608Z,0.00
2022-07-30T03:52:08.598Z,5.62
2022-07-30T03:53:08.611Z,5.62
2022-07-30T03:54:13.132Z,5.62
2022-07-30T03:55:09.539Z,5.62
2022-07-30T03:56:08.527Z,5.62
2022-07-30T03:57:08.537Z,5.62
2022-07-30T03:58:08.520Z,5.62
2022-07-30T03:59:08.511Z,5.62
2022-07-30T04:00:08.509Z,11.25
2022-07-30T04:01:08.501Z,11.25
2022-07-30T04:02:08.530Z,11.25
2022-07-30T04:03:08.475Z,11.25
2022-07-30T04:04:08.510Z,11.25
2022-07-30T04:05:08.451Z,11.25
2022-07-30T04:06:08.437Z,16.88
2022-07-30T04:07:08.450Z,16.88
2022-07-30T04:08:08.422Z,16.88
2022-07-30T04:09:08.426Z,16.88
2022-07-30T04:10:08.377Z,16.88
2022-07-30T04:11:08.384Z,16.88
2022-07-30T04:12:08.373Z,22.50
2022-07-30T04:13:09.700Z,22.50
2022-07-30T04:14:08.335Z,22.50
2022-07-30T04:16:36.830Z,22.50
2022-07-30T04:16:39.284Z,22.50
2022-07-30T04:17:09.322Z,22.50
2022-07-30T04:18:08.304Z,28.12
2022-07-30T04:19:08.335Z,28.12
2022-07-30T04:20:08.294Z,28.12
2022-07-30T04:21:08.261Z,28.12
2022-07-30T04:22:09.287Z,28.12
2022-07-30T04:23:08.405Z,28.12
2022-07-30T04:24:08.224Z,33.75
2022-07-30T04:25:08.256Z,33.75
2022-07-30T04:26:08.217Z,33.75
2022-07-30T04:27:08.208Z,33.75
2022-07-30T04:28:08.208Z,33.75
2022-07-30T04:29:08.176Z,33.75
2022-07-30T04:30:08.200Z,39.38
2022-07-30T04:31:08.211Z,39.38
2022-07-30T04:32:08.138Z,39.38
2022-07-30T04:33:08.183Z,39.38
2022-07-30T04:34:08.158Z,39.38
2022-07-30T04:35:08.139Z,39.38
2022-07-30T04:36:08.130Z,45.00
2022-07-30T04:37:08.131Z,45.00
2022-07-30T04:38:08.070Z,45.00
2022-07-30T04:39:08.131Z,45.00
2022-07-30T04:40:08.073Z,45.00
2022-07-30T04:41:08.113Z,45.00
2022-07-30T04:42:08.043Z,45.00
2022-07-30T04:43:08.049Z,50.62
2022-07-30T04:44:08.010Z,50.62
2022-07-30T04:45:08.023Z,50.62
2022-07-30T04:46:08.049Z,50.62
2022-07-30T04:47:08.013Z,50.62
2022-07-30T04:48:07.981Z,50.62
2022-07-30T04:49:08.050Z,50.62
2022-07-30T04:50:07.964Z,56.25
2022-07-30T04:51:07.995Z,56.25
2022-07-30T04:52:07.963Z,56.25
2022-07-30T04:53:07.945Z,56.25
2022-07-30T04:54:07.916Z,56.25
2022-07-30T04:55:07.923Z,56.25
2022-07-30T04:56:07.905Z,56.25
2022-07-30T04:57:08.200Z,56.25
2022-07-30T04:58:07.905Z,61.88
2022-07-30T04:59:07.846Z,61.88
2022-07-30T05:00:07.903Z,61.88
2022-07-30T05:01:07.866Z,61.88
2022-07-30T05:02:07.969Z,61.88
2022-07-30T05:03:07.847Z,61.88
2022-07-30T05:04:07.794Z,61.88
2022-07-30T05:05:07.815Z,61.88
2022-07-30T05:06:07.804Z,67.50
2022-07-30T05:07:07.776Z,67.50
2022-07-30T05:08:07.767Z,67.50
2022-07-30T05:09:07.778Z,67.50
2022-07-30T05:10:07.733Z,67.50
2022-07-30T05:11:07.727Z,67.50
2022-07-30T05:12:07.740Z,67.50
2022-07-30T05:13:08.090Z,67.50
2022-07-30T05:14:07.977Z,67.50
2022-07-30T05:15:07.711Z,67.50
2022-07-30T05:16:07.688Z,73.12
2022-07-30T05:17:07.660Z,73.12
2022-07-30T05:18:07.641Z,73.12
2022-07-30T05:19:08.024Z,73.12
2022-07-30T05:20:07.656Z,73.12
2022-07-30T05:21:07.632Z,73.12
2022-07-30T05:22:07.661Z,73.12
2022-07-30T05:23:07.622Z,73.12
2022-07-30T05:24:07.612Z,73.12
2022-07-30T05:25:15.792Z,73.12
2022-07-30T05:26:08.593Z,73.12
2022-07-30T05:27:07.571Z,73.12
2022-07-30T05:28:07.555Z,73.12
2022-07-30T05:29:08.225Z,78.75
2022-07-30T05:30:07.575Z,78.75
2022-07-30T05:31:08.793Z,78.75
2022-07-30T05:32:07.516Z,78.75
2022-07-30T05:33:10.971Z,78.75
2022-07-30T05:34:08.541Z,78.75
2022-07-30T05:35:07.521Z,78.75
2022-07-30T05:36:07.481Z,78.75
2022-07-30T05:37:07.450Z,78.75
2022-07-30T05:38:07.467Z,78.75
2022-07-30T05:39:07.453Z,78.75
2022-07-30T05:40:07.447Z,78.75
2022-07-30T05:41:19.130Z,78.75
2022-07-30T05:42:08.387Z,78.75
2022-07-30T05:43:07.379Z,78.75
2022-07-30T05:44:07.366Z,78.75
2022-07-30T05:45:07.412Z,84.38
2022-07-30T05:46:07.394Z,84.38
2022-07-30T05:47:07.339Z,84.38
2022-07-30T05:48:07.389Z,84.38
2022-07-30T05:49:07.407Z,84.38
2022-07-30T05:50:07.307Z,84.38
2022-07-30T05:51:07.333Z,84.38
2022-07-30T05:52:07.375Z,84.38
2022-07-30T05:53:07.320Z,84.38
2022-07-30T05:54:07.279Z,84.38
2022-07-30T05:55:07.311Z,84.38
2022-07-30T05:56:07.248Z,84.38
2022-07-30T05:57:07.242Z,84.38
2022-07-30T05:58:07.243Z,84.38
2022-07-30T05:59:07.242Z,90.00
2022-07-30T06:00:07.242Z,90.00
2022-07-30T06:01:07.211Z,90.00
2022-07-30T06:02:07.193Z,90.00
2022-07-30T06:03:07.182Z,90.00
2022-07-30T06:04:07.189Z,90.00
2022-07-30T06:05:07.201Z,90.00
2022-07-30T06:06:07.184Z,90.00
2022-07-30T06:07:07.146Z,90.00
2022-07-30T06:08:07.206Z,90.00
2022-07-30T06:09:07.114Z,90.00
2022-07-30T06:10:07.176Z,95.62
2022-07-30T06:11:07.092Z,95.62
2022-07-30T06:12:07.162Z,95.62
2022-07-30T06:13:07.076Z,95.62
2022-07-30T06:14:07.104Z,95.62
2022-07-30T06:15:07.086Z,95.62
2022-07-30T06:16:07.146Z,95.62
2022-07-30T06:17:07.029Z,95.62
2022-07-30T06:18:07.038Z,95.62
2022-07-30T06:19:07.055Z,95.62
2022-07-30T06:20:07.017Z,95.62
2022-07-30T06:21:06.989Z,101.25
2022-07-30T06:22:07.230Z,101.25
2022-07-30T06:23:07.002Z,101.25
2022-07-30T06:24:06.974Z,101.25
2022-07-30T06:25:07.041Z,101.25
2022-07-30T06:26:06.980Z,101.25
2022-07-30T06:27:06.920Z,101.25
2022-07-30T06:28:27.449Z,101.25
2022-07-30T06:29:07.910Z,101.25
2022-07-30T06:30:06.900Z,101.25
2022-07-30T06:31:06.957Z,101.25
2022-07-30T06:32:06.894Z,101.25
2022-07-30T06:33:06.871Z,101.25
2022-07-30T06:34:06.902Z,101.25
2022-07-30T06:35:06.842Z,106.88
2022-07-30T06:36:06.849Z,106.88
2022-07-30T06:37:06.821Z,106.88
2022-07-30T06:38:08.041Z,106.88
2022-07-30T06:39:06.818Z,106.88
2022-07-30T06:40:06.865Z,106.88
2022-07-30T06:41:06.793Z,106.88
2022-07-30T06:42:06.754Z,106.88
2022-07-30T06:43:06.773Z,106.88
2022-07-30T06:44:06.744Z,106.88
2022-07-30T06:45:06.734Z,106.88
2022-07-30T06:46:06.788Z,106.88
2022-07-30T06:47:08.148Z,106.88
2022-07-30T06:48:06.706Z,106.88
2022-07-30T06:49:07.083Z,106.88
2022-07-30T06:50:06.674Z,106.88
2022-07-30T06:51:06.653Z,106.88
2022-07-30T06:52:06.717Z,112.50
2022-07-30T06:53:06.670Z,112.50
2022-07-30T06:54:06.625Z,112.50
2022-07-30T06:55:06.640Z,112.50
2022-07-30T06:56:06.627Z,112.50
2022-07-30T06:57:06.618Z,112.50
2022-07-30T06:58:06.629Z,112.50
2022-07-30T06:59:06.579Z,112.50
2022-07-30T07:00:06.605Z,112.50
2022-07-30T07:01:11.233Z,112.50
2022-07-30T07:02:07.559Z,112.50
2022-07-30T07:03:10.002Z,112.50
2022-07-30T07:04:07.621Z,112.50
2022-07-30T07:05:06.579Z,112.50
2022-07-30T07:06:06.548Z,118.12
2022-07-30T07:07:12.321Z,112.50
2022-07-30T07:08:07.541Z,118.12
2022-07-30T07:09:06.481Z,118.12
2022-07-30T07:10:06.487Z,118.12
2022-07-30T07:11:06.461Z,118.12
2022-07-30T07:12:06.433Z,118.12
2022-07-30T07:13:07.916Z,118.12
2022-07-30T07:14:06.514Z,118.12
2022-07-30T07:15:06.403Z,118.12
2022-07-30T07:16:06.410Z,118.12
2022-07-30T07:17:06.978Z,118.12
2022-07-30T07:18:06.387Z,118.12
2022-07-30T07:19:06.411Z,118.12
2022-07-30T07:20:06.376Z,118.12
2022-07-30T07:21:06.342Z,123.75
2022-07-30T07:22:06.427Z,123.75
2022-07-30T07:23:09.156Z,123.75
2022-07-30T07:24:07.375Z,123.75
2022-07-30T07:25:06.324Z,123.75
2022-07-30T07:26:06.307Z,123.75
2022-07-30T07:27:06.264Z,123.75
2022-07-30T07:28:12.743Z,123.75
2022-07-30T07:29:07.258Z,123.75
2022-07-30T07:30:06.490Z,123.75
2022-07-30T07:31:06.277Z,123.75
2022-07-30T07:32:08.076Z,123.75
2022-07-30T07:33:06.231Z,129.38
2022-07-30T07:34:06.273Z,129.38
2022-07-30T07:35:06.214Z,129.38
2022-07-30T07:36:06.189Z,129.38
2022-07-30T07:37:06.260Z,129.38
2022-07-30T07:38:06.160Z,129.38
2022-07-30T07:39:06.142Z,129.38
2022-07-30T07:40:06.179Z,135.00
2022-07-30T07:41:06.150Z,135.00
2022-07-30T07:42:06.120Z,135.00
2022-07-30T07:43:06.180Z,135.00
2022-07-30T07:44:06.111Z,135.00
2022-07-30T07:45:06.080Z,135.00
2022-07-30T07:46:06.143Z,135.00
2022-07-30T07:47:06.073Z,135.00
2022-07-30T07:48:06.088Z,135.00
2022-07-30T07:49:06.098Z,135.00
2022-07-30T07:50:06.043Z,140.62
2022-07-30T07:51:09.648Z,140.62
2022-07-30T07:52:06.013Z,140.62
2022-07-30T07:53:05.993Z,146.25
2022-07-30T07:54:20.981Z,146.25
2022-07-30T07:55:06.981Z,146.25
2022-07-30T07:56:05.995Z,146.25
2022-07-30T07:57:06.215Z,146.25
2022-07-30T07:58:06.480Z,146.25
2022-07-30T07:59:06.046Z,146.25
2022-07-30T08:00:05.965Z,146.25
2022-07-30T08:01:05.969Z,146.25
2022-07-30T08:02:05.972Z,146.25
2022-07-30T08:03:05.927Z,146.25
2022-07-30T08:04:10.570Z,151.88
2022-07-30T08:05:05.877Z,151.88
2022-07-30T08:06:06.880Z,151.88
2022-07-30T08:07:05.868Z,151.88
2022-07-30T08:08:05.868Z,151.88
2022-07-30T08:09:05.849Z,151.88
2022-07-30T08:10:05.851Z,151.88
2022-07-30T08:11:05.809Z,151.88
2022-07-30T08:12:05.798Z,151.88
2022-07-30T08:13:05.831Z,157.50
2022-07-30T08:14:05.790Z,157.50
2022-07-30T08:15:05.810Z,157.50
2022-07-30T08:16:05.814Z,163.12
2022-07-30T08:17:07.497Z,163.12
2022-07-30T08:18:05.780Z,163.12
2022-07-30T08:19:05.722Z,168.75
2022-07-30T08:20:05.764Z,168.75
2022-07-30T08:21:05.693Z,168.75
2022-07-30T08:22:05.689Z,168.75
2022-07-30T08:23:05.700Z,163.12
2022-07-30T08:24:05.795Z,163.12
2022-07-30T08:25:05.673Z,163.12
2022-07-30T08:26:05.652Z,168.75
2022-07-30T08:27:05.784Z,168.75
2022-07-30T08:28:05.655Z,168.75
2022-07-30T08:29:05.654Z,168.75
2022-07-30T08:30:05.616Z,168.75
2022-07-30T08:31:05.643Z,168.75
2022-07-30T08:32:05.790Z,168.75
2022-07-30T08:33:05.615Z,168.75
2022-07-30T08:34:05.586Z,174.38
2022-07-30T08:35:05.545Z,174.38
2022-07-30T08:36:09.838Z,174.38
2022-07-30T08:37:05.556Z,180.00
2022-07-30T08:38:05.547Z,174.38
2022-07-30T08:39:05.537Z,157.50
2022-07-30T08:40:05.509Z,174.38
2022-07-30T08:41:05.493Z,180.00
2022-07-30T08:42:05.800Z,180.00
2022-07-30T08:43:05.531Z,185.62
2022-07-30T08:44:10.124Z,196.88
2022-07-30T08:45:06.467Z,219.38
2022-07-30T08:46:05.441Z,225.00
2022-07-30T08:47:05.721Z,208.12
2022-07-30T08:48:05.430Z,191.25
2022-07-30T08:49:10.975Z,191.25
2022-07-30T08:50:06.398Z,191.25
2022-07-30T08:51:05.401Z,196.88
2022-07-30T08:52:05.646Z,196.88
2022-07-30T08:53:05.401Z,213.75
2022-07-30T08:54:05.411Z,270.00
2022-07-30T08:55:05.372Z,292.50
2022-07-30T08:56:05.342Z,253.12
2022-07-30T08:57:05.303Z,247.50
2022-07-30T08:58:05.311Z,236.25
2022-07-30T08:59:05.302Z,230.62
2022-07-30T09:00:05.305Z,213.75
2022-07-30T09:01:05.293Z,202.50
2022-07-30T09:02:08.937Z,202.50
2022-07-30T09:03:06.254Z,202.50
2022-07-30T09:05:05.255Z,208.12
2022-07-30T09:06:05.235Z,213.75
2022-07-30T09:07:05.314Z,225.00
2022-07-30T09:08:08.824Z,258.75
2022-07-30T09:09:05.324Z,247.50
2022-07-30T09:10:05.187Z,225.00
2022-07-30T09:11:05.187Z,270.00
2022-07-30T09:12:05.509Z,309.38
2022-07-30T09:13:05.160Z,270.00
2022-07-30T09:14:08.368Z,236.25
2022-07-30T09:15:05.138Z,219.38
2022-07-30T09:16:05.179Z,191.25
2022-07-30T09:17:05.479Z,208.12
2022-07-30T09:18:05.129Z,230.62
2022-07-30T09:19:05.079Z,230.62
2022-07-30T09:20:05.070Z,253.12
2022-07-30T09:21:05.070Z,286.88
2022-07-30T09:22:05.070Z,292.50
2022-07-30T09:23:05.071Z,258.75
2022-07-30T09:24:05.040Z,281.25
2022-07-30T09:25:05.039Z,281.25
2022-07-30T09:26:05.048Z,286.88
2022-07-30T09:27:05.527Z,298.12
2022-07-30T09:28:16.780Z,315.00
2022-07-30T09:29:06.001Z,309.38
2022-07-30T09:30:05.022Z,331.88
2022-07-30T09:31:05.014Z,343.12
2022-07-30T09:32:05.489Z,376.88
2022-07-30T09:33:04.934Z,382.50
2022-07-30T09:34:04.973Z,444.38
2022-07-30T09:35:06.331Z,399.38
2022-07-30T09:36:04.935Z,399.38
2022-07-30T09:37:04.904Z,315.00
2022-07-30T09:38:06.672Z,270.00
2022-07-30T09:39:04.905Z,247.50
2022-07-30T09:40:04.901Z,230.62
2022-07-30T09:41:12.429Z,219.38
2022-07-30T09:42:05.946Z,219.38
2022-07-30T09:43:05.886Z,230.62
2022-07-30T09:44:04.828Z,270.00
2022-07-30T09:45:04.836Z,275.62
2022-07-30T09:46:04.809Z,281.25
2022-07-30T09:47:04.798Z,298.12
2022-07-30T09:48:04.776Z,320.62
2022-07-30T09:49:04.811Z,331.88
2022-07-30T09:50:07.403Z,337.50
2022-07-30T09:51:04.739Z,337.50
2022-07-30T09:52:04.789Z,264.38
2022-07-30T09:53:04.803Z,219.38
2022-07-30T09:54:04.732Z,208.12
2022-07-30T09:55:04.762Z,208.12
2022-07-30T09:56:04.707Z,219.38
2022-07-30T09:57:04.702Z,275.62
2022-07-30T09:58:04.691Z,309.38
2022-07-30T09:59:04.716Z,360.00
2022-07-30T10:00:04.664Z,365.62
2022-07-30T10:01:04.691Z,410.62
2022-07-30T10:02:05.157Z,410.62
2022-07-30T10:03:12.256Z,388.12
2022-07-30T10:04:05.603Z,371.25
2022-07-30T10:05:04.614Z,343.12
2022-07-30T10:06:04.624Z,309.38
2022-07-30T10:07:04.574Z,331.88
2022-07-30T10:08:16.440Z,399.38
2022-07-30T10:09:13.985Z,360.00
2022-07-30T10:10:06.272Z,331.88
2022-07-30T10:11:08.600Z,298.12
2022-07-30T10:12:05.865Z,286.88
2022-07-30T10:13:05.523Z,275.62
2022-07-30T10:14:04.574Z,315.00
2022-07-30T10:15:06.208Z,444.38
2022-07-30T10:16:04.488Z,489.38
2022-07-30T10:17:04.484Z,511.88
2022-07-30T10:18:06.009Z,506.25
2022-07-30T10:19:04.497Z,433.12
2022-07-30T10:20:08.276Z,382.50
2022-07-30T10:21:05.352Z,331.88
2022-07-30T10:22:04.719Z,275.62
2022-07-30T10:23:08.136Z,309.38
2022-07-30T10:24:04.461Z,343.12
2022-07-30T10:25:05.174Z,360.00
2022-07-30T10:26:04.394Z,348.75
2022-07-30T10:27:06.277Z,354.38
2022-07-30T10:28:04.349Z,371.25
2022-07-30T10:29:04.380Z,365.62
2022-07-30T10:30:04.440Z,371.25
2022-07-30T10:31:08.474Z,354.38
2022-07-30T10:32:05.325Z,343.12
2022-07-30T10:33:04.416Z,343.12
2022-07-30T10:34:04.295Z,376.88
2022-07-30T10:35:04.302Z,399.38
2022-07-30T10:36:04.350Z,416.25
2022-07-30T10:37:04.828Z,365.62
2022-07-30T10:38:04.234Z,331.88
2022-07-30T10:39:04.265Z,388.12
2022-07-30T10:40:04.267Z,405.00
2022-07-30T10:41:04.216Z,466.88
2022-07-30T10:42:04.235Z,506.25
2022-07-30T10:43:04.217Z,506.25
2022-07-30T10:44:04.188Z,450.00
2022-07-30T10:45:04.312Z,365.62
2022-07-30T10:46:05.078Z,331.88
2022-07-30T10:47:07.854Z,365.62
2022-07-30T10:48:05.594Z,421.88
2022-07-30T10:49:04.183Z,410.62
2022-07-30T10:50:05.157Z,427.50
2022-07-30T10:51:04.196Z,466.88
2022-07-30T10:52:04.170Z,506.25
2022-07-30T10:53:04.131Z,500.62
2022-07-30T10:54:04.100Z,500.62
2022-07-30T10:55:04.062Z,466.88
2022-07-30T10:56:04.091Z,478.12
2022-07-30T10:57:04.302Z,495.00
2022-07-30T10:58:04.073Z,573.75
2022-07-30T10:59:04.090Z,579.38
2022-07-30T11:00:04.484Z,500.62
2022-07-30T11:01:04.036Z,405.00
2022-07-30T11:02:04.252Z,489.38
2022-07-30T11:03:14.134Z,450.00
2022-07-30T11:04:05.007Z,455.62
2022-07-30T11:05:03.974Z,500.62
2022-07-30T11:06:04.015Z,489.38
2022-07-30T11:07:03.959Z,438.75
2022-07-30T11:08:03.935Z,438.75
2022-07-30T11:09:03.937Z,444.38
2022-07-30T11:10:09.092Z,461.25
2022-07-30T11:11:19.722Z,472.50
2022-07-30T11:12:06.373Z,478.12
2022-07-30T11:13:03.936Z,489.38
2022-07-30T11:14:03.939Z,500.62
2022-07-30T11:15:06.510Z,495.00
2022-07-30T11:16:04.840Z,483.75
2022-07-30T11:17:03.829Z,489.38
2022-07-30T11:18:04.314Z,478.12
2022-07-30T11:20:04.818Z,506.25
2022-07-30T11:21:05.935Z,551.25
2022-07-30T11:22:04.183Z,506.25
2022-07-30T11:23:03.791Z,495.00
2022-07-30T11:24:03.772Z,478.12
2022-07-30T11:25:12.526Z,405.00
2022-07-30T11:26:04.797Z,433.12
2022-07-30T11:27:03.741Z,410.62
2022-07-30T11:28:03.733Z,472.50
2022-07-30T11:29:03.703Z,534.38
2022-07-30T11:30:03.745Z,540.00
2022-07-30T11:31:10.066Z,489.38
2022-07-30T11:32:06.897Z,461.25
2022-07-30T11:33:03.723Z,421.88
2022-07-30T11:34:03.657Z,466.88
2022-07-30T11:35:03.663Z,421.88
2022-07-30T11:36:03.655Z,455.62
2022-07-30T11:37:21.726Z,506.25
2022-07-30T11:38:04.618Z,455.62
2022-07-30T11:39:06.990Z,433.12
2022-07-30T11:40:03.617Z,421.88
2022-07-30T11:41:03.610Z,416.25
2022-07-30T11:42:03.928Z,444.38
2022-07-30T11:43:03.564Z,478.12
2022-07-30T11:44:03.538Z,517.50
2022-07-30T11:45:04.163Z,585.00
2022-07-30T11:46:03.573Z,568.12
2022-07-30T11:47:03.550Z,382.50
2022-07-30T11:48:03.563Z,388.12
2022-07-30T11:49:03.543Z,421.88
2022-07-30T11:50:03.480Z,416.25
2022-07-30T11:51:04.092Z,399.38
2022-07-30T11:52:04.126Z,500.62
2022-07-30T11:53:03.484Z,506.25
2022-07-30T11:54:03.473Z,517.50
2022-07-30T11:55:03.443Z,517.50
2022-07-30T11:56:03.447Z,517.50
2022-07-30T11:57:04.742Z,495.00
2022-07-30T11:58:03.446Z,495.00
2022-07-30T11:59:03.434Z,500.62
2022-07-30T12:00:03.399Z,528.75
2022-07-30T12:01:03.439Z,556.88
2022-07-30T12:02:04.675Z,585.00
2022-07-30T12:03:04.320Z,618.75
2022-07-30T12:04:03.354Z,658.12
2022-07-30T12:05:03.370Z,680.62
2022-07-30T12:06:03.357Z,641.25
2022-07-30T12:07:03.723Z,624.38
2022-07-30T12:08:03.307Z,579.38
2022-07-30T12:09:03.306Z,573.75
2022-07-30T12:10:03.298Z,573.75
2022-07-30T12:11:03.365Z,590.62
2022-07-30T12:12:03.332Z,618.75
2022-07-30T12:13:03.298Z,669.38
2022-07-30T12:14:03.260Z,686.25
2022-07-30T12:15:03.231Z,691.88
2022-07-30T12:16:03.262Z,725.62
2022-07-30T12:17:03.553Z,708.75
2022-07-30T12:18:25.313Z,725.62
2022-07-30T12:19:04.242Z,765.00
2022-07-30T12:20:03.192Z,871.88
2022-07-30T12:21:03.183Z,990.00
2022-07-30T12:22:03.222Z,967.50
2022-07-30T12:23:03.289Z,545.62
2022-07-30T12:24:03.133Z,489.38
2022-07-30T12:25:03.129Z,916.88
2022-07-30T12:26:03.176Z,1164.38
2022-07-30T12:27:03.559Z,1299.38
2022-07-30T12:28:03.141Z,1288.12
2022-07-30T12:29:03.097Z,877.50
2022-07-30T12:30:03.076Z,1248.75
2022-07-30T12:31:03.088Z,1327.50
2022-07-30T12:32:03.119Z,1850.62
2022-07-30T12:33:03.057Z,4449.38
2022-07-30T12:34:03.058Z,6204.38
2022-07-30T12:35:03.037Z,6198.75
2022-07-30T12:36:03.029Z,6598.12
2022-07-30T12:37:03.403Z,6660.00
2022-07-30T12:38:02.989Z,6007.50
2022-07-30T12:39:02.999Z,6541.88
2022-07-30T12:40:02.979Z,5709.38
2022-07-30T12:41:03.003Z,6367.50
2022-07-30T12:42:03.012Z,6378.75
2022-07-30T12:43:02.969Z,1063.12
2022-07-30T12:44:02.933Z,6260.62
2022-07-30T12:45:02.943Z,5248.12
2022-07-30T12:46:02.914Z,703.12
2022-07-30T12:47:03.355Z,500.62
2022-07-30T12:48:02.905Z,388.12
2022-07-30T12:49:12.201Z,365.62